Time;durP1;ratioP1;P1;durP2;ratioP2;P2;SDS_P1;SDS_P2;PMS_P1;PMS_P2;Temp;Humidity;BMP_temperature;BMP_pressure;BME280_temperature;BME280_humidity;BME280_pressure;Samples;Min_cycle;Max_cycle;Signal;HPM_P1;HPM_P2
2022/08/30 00:03:07;;;;;;;8.23;4.80;;;;;;;19.41;49.37;99653.34;5055265;28;20049;-77
2022/08/30 00:05:34;;;;;;;11.73;4.95;;;;;;;19.37;49.32;99647.41;5054810;28;20147;-79
2022/08/30 00:08:00;;;;;;;6.00;4.88;;;;;;;19.31;49.25;99648.09;5037375;28;20049;-78
2022/08/30 00:10:27;;;;;;;14.23;5.28;;;;;;;19.23;49.89;99647.25;5055393;28;20053;-77
2022/08/30 00:12:54;;;;;;;8.80;4.65;;;;;;;19.25;49.57;99670.44;5037611;28;20135;-80
2022/08/30 00:15:20;;;;;;;9.75;5.28;;;;;;;19.20;49.89;99672.84;5020854;28;20182;-79
2022/08/30 00:17:47;;;;;;;13.68;5.03;;;;;;;19.13;50.37;99658.25;5054908;28;20045;-78
2022/08/30 00:20:17;;;;;;;7.57;4.72;;;;;;;19.17;49.85;99665.88;5053644;28;20045;-80
2022/08/30 00:22:43;;;;;;;13.40;4.85;;;;;;;19.15;49.97;99658.97;5037558;28;20037;-78
2022/08/30 00:25:11;;;;;;;9.32;4.90;;;;;;;19.08;49.76;99649.81;5055525;28;20450;-78
2022/08/30 00:27:37;;;;;;;7.63;4.65;;;;;;;19.03;50.18;99655.75;5037317;28;20091;-78
2022/08/30 00:30:04;;;;;;;7.57;4.93;;;;;;;19.03;50.41;99658.47;5055158;28;20072;-78
2022/08/30 00:32:31;;;;;;;9.30;4.93;;;;;;;18.98;50.49;99654.53;5054278;28;20496;-79
2022/08/30 00:34:57;;;;;;;16.27;4.60;;;;;;;18.87;50.09;99642.19;5054029;28;20286;-77
2022/08/30 00:37:23;;;;;;;11.90;4.20;;;;;;;18.92;50.49;99650.66;5037050;28;20052;-77
2022/08/30 00:39:50;;;;;;;14.15;5.57;;;;;;;18.89;50.12;99654.53;5054643;28;20121;-77
2022/08/30 00:42:18;;;;;;;12.40;5.07;;;;;;;18.89;50.43;99653.72;5036691;28;20044;-77
2022/08/30 00:44:44;;;;;;;7.33;4.57;;;;;;;18.88;50.45;99655.56;5036582;28;20045;-77
2022/08/30 00:47:10;;;;;;;4.97;4.43;;;;;;;18.88;50.01;99647.44;5036676;28;20033;-82
2022/08/30 00:49:38;;;;;;;10.43;4.95;;;;;;;18.82;50.28;99652.69;5036621;28;20047;-82
2022/08/30 00:52:06;;;;;;;9.70;5.23;;;;;;;18.81;49.87;99651.84;5036688;28;20103;-81
2022/08/30 00:54:34;;;;;;;5.72;4.90;;;;;;;18.74;50.55;99639.16;5053115;28;20127;-76
2022/08/30 00:57:02;;;;;;;20.17;5.43;;;;;;;18.78;50.21;99649.47;5053062;28;20488;-77
2022/08/30 00:59:28;;;;;;;6.65;4.88;;;;;;;18.72;50.41;99652.00;5053171;28;20056;-77
2022/08/30 01:01:54;;;;;;;8.43;4.38;;;;;;;18.71;50.99;99655.72;5053022;28;20037;-78
2022/08/30 01:04:27;;;;;;;8.75;5.03;;;;;;;18.74;50.54;99661.66;5053273;28;20552;-77
2022/08/30 01:06:53;;;;;;;15.07;4.68;;;;;;;18.74;50.35;99661.66;5036585;28;20110;-82
2022/08/30 01:09:19;;;;;;;7.82;5.30;;;;;;;18.71;50.49;99655.72;5053100;28;20045;-80
2022/08/30 01:11:46;;;;;;;7.72;5.18;;;;;;;18.66;50.71;99640.78;5052953;28;20057;-84
2022/08/30 01:14:14;;;;;;;8.95;5.20;;;;;;;18.74;50.66;99663.50;5054252;28;20083;-84
2022/08/30 01:16:42;;;;;;;10.20;4.95;;;;;;;18.74;50.86;99660.81;5053154;28;20044;-84
2022/08/30 01:19:26;;;;;;;13.70;4.70;;;;;;;18.68;50.86;99662.28;5052778;28;20037;-83
2022/08/30 01:21:58;;;;;;;8.15;5.03;;;;;;;18.68;50.58;99663.13;5036385;28;20040;-83
2022/08/30 01:24:24;;;;;;;16.00;5.50;;;;;;;18.79;50.80;99666.56;5053138;28;20101;-83
2022/08/30 01:26:49;;;;;;;13.35;5.05;;;;;;;18.79;50.87;99666.56;5036224;28;20037;-83
2022/08/30 01:29:20;;;;;;;9.35;4.88;;;;;;;18.84;50.68;99672.31;5015923;28;20539;-84
2022/08/30 01:31:45;;;;;;;8.88;5.00;;;;;;;18.81;50.08;99678.09;5031973;28;20067;-85
2022/08/30 01:34:12;;;;;;;6.85;4.88;;;;;;;18.78;50.63;99679.25;5033835;28;20476;-82
2022/08/30 01:36:41;;;;;;;11.48;5.45;;;;;;;18.77;50.17;99669.44;5032203;28;20049;-80
2022/08/30 01:39:08;;;;;;;10.27;5.28;;;;;;;18.80;50.38;99687.19;5031956;28;20048;-80
2022/08/30 01:41:35;;;;;;;11.50;5.35;;;;;;;18.75;50.34;99676.03;5032491;28;20493;-80
2022/08/30 01:44:07;;;;;;;9.05;5.47;;;;;;;18.79;50.20;99685.50;5015369;28;20041;-80
2022/08/30 01:46:41;;;;;;;11.85;4.88;;;;;;;18.77;50.54;99682.09;4999597;28;20045;-84
2022/08/30 01:49:12;;;;;;;12.25;5.70;;;;;;;18.77;50.35;99672.16;5015951;28;20042;-84
2022/08/30 01:51:38;;;;;;;12.68;5.43;;;;;;;18.85;50.47;99674.88;5032946;28;20045;-81
2022/08/30 01:54:05;;;;;;;14.48;5.38;;;;;;;18.80;50.31;99669.09;5032190;28;20053;-77
2022/08/30 01:56:31;;;;;;;12.07;5.22;;;;;;;18.78;50.71;99673.00;5031872;28;20055;-78
2022/08/30 01:58:58;;;;;;;11.70;5.10;;;;;;;18.83;50.53;99674.16;5031589;28;20037;-80
2022/08/30 02:01:27;;;;;;;17.20;5.32;;;;;;;18.83;50.73;99665.19;5032054;28;20040;-82
2022/08/30 02:03:55;;;;;;;11.07;5.32;;;;;;;18.84;50.85;99666.88;5015516;28;20046;-79
2022/08/30 02:06:21;;;;;;;8.50;5.27;;;;;;;18.91;50.53;99667.91;5032045;28;20037;-80
2022/08/30 02:08:48;;;;;;;13.43;5.70;;;;;;;18.97;50.94;99678.09;5031817;28;20037;-82
2022/08/30 02:11:14;;;;;;;16.67;6.50;;;;;;;19.03;50.82;99674.72;5000197;28;20068;-82
2022/08/30 02:13:42;;;;;;;12.70;6.30;;;;;;;19.07;50.84;99678.78;5016229;28;20037;-83
2022/08/30 02:16:11;;;;;;;15.68;6.22;;;;;;;19.04;50.93;99662.00;5031629;28;20624;-82
2022/08/30 02:18:40;;;;;;;12.90;6.75;;;;;;;19.17;50.64;99684.84;5032803;28;20520;-83
2022/08/30 02:21:07;;;;;;;18.83;5.68;;;;;;;19.21;50.54;99679.09;5015039;28;20135;-83
2022/08/30 02:23:34;;;;;;;13.82;6.05;;;;;;;19.16;50.95;99677.75;5031524;28;20043;-83
2022/08/30 02:26:01;;;;;;;14.57;5.72;;;;;;;19.19;50.90;99670.31;5015456;28;20042;-80
2022/08/30 02:28:27;;;;;;;16.52;5.72;;;;;;;19.22;50.92;99686.19;5033142;28;20076;-78
2022/08/30 02:30:54;;;;;;;15.38;6.00;;;;;;;19.23;51.49;99687.91;5032741;28;20144;-78
2022/08/30 02:33:19;;;;;;;20.17;6.90;;;;;;;19.22;51.04;99678.94;5031965;28;20049;-80
2022/08/30 02:35:45;;;;;;;13.85;6.03;;;;;;;19.28;51.03;99690.94;5031391;28;20566;-80
2022/08/30 02:38:12;;;;;;;14.20;6.28;;;;;;;19.31;51.16;99677.06;5032622;28;20038;-81
2022/08/30 02:40:38;;;;;;;18.30;6.22;;;;;;;19.40;51.43;99686.88;5031223;28;20465;-81
2022/08/30 02:43:04;;;;;;;15.07;6.18;;;;;;;19.41;51.42;99685.88;5042203;28;20041;-80
2022/08/30 02:45:29;;;;;;;15.80;5.97;;;;;;;19.46;50.91;99688.91;5042169;28;20522;-80
2022/08/30 02:47:55;;;;;;;13.50;6.50;;;;;;;19.53;50.71;99694.50;5035295;28;20049;-81
2022/08/30 02:50:22;;;;;;;12.65;6.15;;;;;;;19.58;50.77;99700.25;5038985;28;20475;-85
2022/08/30 02:52:48;;;;;;;21.25;6.82;;;;;;;19.56;50.49;99689.56;5037549;28;20171;-83
2022/08/30 02:55:15;;;;;;;18.92;7.47;;;;;;;19.45;50.67;99692.63;5021017;28;20042;-88
2022/08/30 02:57:40;;;;;;;16.30;5.95;;;;;;;19.38;50.72;99692.47;5036060;28;20404;-80
2022/08/30 03:00:08;;;;;;;18.58;6.55;;;;;;;19.37;50.94;99701.63;5018698;28;20037;-84
2022/08/30 03:02:34;;;;;;;14.60;6.20;;;;;;;19.34;50.93;99706.53;5021007;28;20052;-86
2022/08/30 03:05:00;;;;;;;9.88;5.93;;;;;;;19.33;51.18;99693.97;5021249;28;20041;-83
2022/08/30 03:07:26;;;;;;;13.70;6.50;;;;;;;19.24;51.41;99697.72;5042158;28;20045;-88
2022/08/30 03:09:52;;;;;;;17.42;6.47;;;;;;;19.28;51.54;99699.94;5044588;28;20099;-83
2022/08/30 03:12:19;;;;;;;18.50;6.88;;;;;;;19.35;51.43;99700.09;5022862;28;20136;-82
2022/08/30 03:14:45;;;;;;;11.35;6.32;;;;;;;19.43;51.09;99700.09;5037172;28;20056;-84
2022/08/30 03:17:11;;;;;;;10.13;6.70;;;;;;;19.52;51.36;99696.38;5018656;28;20034;-82
2022/08/30 03:19:37;;;;;;;24.65;8.20;;;;;;;19.58;50.85;99703.78;5018578;28;20136;-81
2022/08/30 03:22:05;;;;;;;17.95;7.40;;;;;;;19.64;51.00;99703.16;5035110;28;20373;-86
2022/08/30 03:24:31;;;;;;;16.90;7.72;;;;;;;19.59;51.42;99685.66;5035474;28;20049;-80
2022/08/30 03:26:57;;;;;;;21.25;7.28;;;;;;;19.63;51.07;99690.63;5034860;28;20098;-77
2022/08/30 03:29:23;;;;;;;14.70;7.32;;;;;;;19.69;50.94;99689.06;5018601;28;20501;-78
2022/08/30 03:31:49;;;;;;;25.35;7.65;;;;;;;19.87;51.09;99702.41;5034773;28;20084;-77
2022/08/30 03:34:15;;;;;;;20.52;8.00;;;;;;;19.87;50.85;99702.41;5035212;28;20122;-77
2022/08/30 03:36:41;;;;;;;27.65;7.45;;;;;;;19.86;51.01;99701.56;5018215;28;20037;-80
2022/08/30 03:39:08;;;;;;;18.83;8.15;;;;;;;19.85;51.43;99696.31;5017845;28;20045;-76
2022/08/30 03:41:34;;;;;;;26.60;8.73;;;;;;;19.79;51.58;99700.56;5040085;28;20045;-75
2022/08/30 03:44:02;;;;;;;20.67;7.82;;;;;;;19.83;51.51;99706.50;5034694;28;20472;-76
2022/08/30 03:46:28;;;;;;;27.13;9.10;;;;;;;19.88;51.30;99707.66;5034389;28;20049;-77
2022/08/30 03:48:55;;;;;;;23.95;8.23;;;;;;;19.97;51.40;99705.78;5048738;28;20041;-77
2022/08/30 03:51:22;;;;;;;30.38;9.05;;;;;;;20.20;51.38;99703.16;5037599;28;20093;-77
2022/08/30 03:53:48;;;;;;;31.42;10.02;;;;;;;20.36;51.03;99707.66;5054651;28;20041;-80
2022/08/30 03:56:15;;;;;;;31.25;9.80;;;;;;;20.41;50.74;99697.09;5020685;28;20126;-78
2022/08/30 03:58:41;;;;;;;24.27;10.13;;;;;;;20.38;50.64;99678.44;5053932;28;20377;-77
2022/08/30 04:01:07;;;;;;;31.25;11.90;;;;;;;20.46;50.92;99692.00;5055501;28;20043;-78
2022/08/30 04:03:33;;;;;;;27.42;9.73;;;;;;;20.61;50.83;99690.25;5037596;28;20076;-78
2022/08/30 04:05:59;;;;;;;22.77;10.10;;;;;;;20.63;50.87;99697.38;5021003;28;20041;-77
2022/08/30 04:08:26;;;;;;;30.50;11.52;;;;;;;20.73;50.81;99692.56;5037636;28;20218;-76
2022/08/30 04:10:54;;;;;;;20.80;10.57;;;;;;;20.85;50.58;99697.38;5037143;28;20396;-77
2022/08/30 04:13:22;;;;;;;19.67;12.05;;;;;;;21.09;50.10;99696.34;5020345;28;20041;-76
2022/08/30 04:15:48;;;;;;;30.33;12.18;;;;;;;21.28;49.92;99702.31;5052887;28;20041;-76
2022/08/30 04:18:14;;;;;;;21.90;11.80;;;;;;;21.48;49.54;99703.53;5036651;28;20472;-79
2022/08/30 04:20:42;;;;;;;20.00;11.27;;;;;;;21.52;49.36;99688.53;5053864;28;20488;-77
2022/08/30 04:23:08;;;;;;;28.27;12.38;;;;;;;21.69;49.03;99693.81;5053976;28;20457;-78
2022/08/30 04:25:40;;;;;;;28.95;11.60;;;;;;;21.66;48.58;99683.28;5037483;28;20132;-78
2022/08/30 04:28:07;;;;;;;27.60;10.88;;;;;;;21.80;48.64;99696.06;5053602;28;20053;-78
2022/08/30 04:30:38;;;;;;;28.40;12.82;;;;;;;21.73;48.56;99700.56;5037085;28;20040;-79
2022/08/30 04:33:04;;;;;;;26.50;14.30;;;;;;;21.68;48.43;99692.13;5037185;28;20071;-79
2022/08/30 04:35:30;;;;;;;28.38;13.27;;;;;;;21.76;48.62;99686.59;5037156;28;20053;-78
2022/08/30 04:37:56;;;;;;;24.75;11.70;;;;;;;21.75;48.38;99693.06;5036572;28;20473;-78
2022/08/30 04:40:22;;;;;;;30.23;11.60;;;;;;;21.91;48.60;99692.88;5036827;28;20044;-79
2022/08/30 04:42:52;;;;;;;23.08;10.75;;;;;;;22.07;48.15;99697.28;5036719;28;20055;-81
2022/08/30 04:45:20;;;;;;;25.70;10.88;;;;;;;22.18;47.58;99698.72;5053075;28;20128;-83
2022/08/30 04:47:46;;;;;;;18.63;11.98;;;;;;;22.22;47.29;99697.31;5054181;28;20045;-84
2022/08/30 04:50:15;;;;;;;26.73;12.90;;;;;;;22.29;47.32;99695.53;5054459;28;20048;-83
2022/08/30 04:52:41;;;;;;;27.40;12.93;;;;;;;22.36;47.48;99688.28;5036881;28;20454;-83
2022/08/30 04:55:09;;;;;;;29.95;12.48;;;;;;;22.61;47.32;99693.41;5036480;28;20079;-83
2022/08/30 04:57:37;;;;;;;27.83;14.45;;;;;;;22.68;46.79;99683.41;5054161;28;20145;-83
2022/08/30 05:00:10;;;;;;;36.70;14.30;;;;;;;22.82;46.83;99696.13;5053335;28;20144;-79
2022/08/30 05:02:37;;;;;;;33.72;13.98;;;;;;;22.94;46.73;99696.50;5020202;28;20145;-81
2022/08/30 05:07:48;;;;;;;29.88;11.57;;;;;;;23.45;45.72;99696.34;5036822;28;20075;-88
2022/08/30 05:10:14;;;;;;;27.90;12.80;;;;;;;23.63;45.49;99693.97;5052983;28;20037;-86
2022/08/30 05:12:42;;;;;;;29.17;12.32;;;;;;;23.88;44.85;99690.81;5054233;28;20087;-85
2022/08/30 05:15:09;;;;;;;33.88;12.20;;;;;;;23.95;44.39;99680.78;5053019;28;20514;-87
2022/08/30 05:17:39;;;;;;;27.83;10.52;;;;;;;23.88;44.93;99686.22;5053424;28;20040;-88
2022/08/30 05:20:08;;;;;;;29.30;12.32;;;;;;;24.07;44.67;99694.69;5055906;28;20041;-88
2022/08/30 05:22:40;;;;;;;28.58;11.68;;;;;;;24.22;44.02;99690.81;5053453;28;20045;-87
2022/08/30 05:25:07;;;;;;;21.00;10.68;;;;;;;24.34;43.84;99679.31;5053444;28;20068;-85
2022/08/30 05:27:33;;;;;;;31.13;11.45;;;;;;;24.44;43.71;99687.97;5054531;28;20112;-85
2022/08/30 05:29:59;;;;;;;36.45;11.38;;;;;;;24.69;43.28;99688.28;5039809;28;20044;-86
2022/08/30 05:32:25;;;;;;;33.47;10.27;;;;;;;24.40;42.73;99678.50;5040058;28;20037;-83
2022/08/30 05:34:51;;;;;;;28.13;9.52;;;;;;;24.38;42.97;99686.03;5039096;28;20041;-83
2022/08/30 05:37:17;;;;;;;29.23;8.88;;;;;;;24.48;42.83;99686.50;5055377;28;20051;-82
2022/08/30 05:39:43;;;;;;;18.05;9.57;;;;;;;24.81;42.50;99697.56;5056920;28;20104;-82
2022/08/30 05:42:09;;;;;;;19.38;9.65;;;;;;;25.02;41.75;99695.72;5042853;28;20066;-80
2022/08/30 05:44:35;;;;;;;24.73;8.70;;;;;;;25.22;41.37;99688.41;5058725;28;20041;-83
2022/08/30 05:47:00;;;;;;;26.02;9.63;;;;;;;25.37;40.99;99686.28;5039181;28;20045;-78
2022/08/30 05:49:26;;;;;;;28.75;9.95;;;;;;;25.35;40.92;99688.41;5052641;28;20055;-79
2022/08/30 05:51:52;;;;;;;23.27;8.40;;;;;;;25.27;40.52;99677.66;5018786;28;20063;-76
2022/08/30 05:54:18;;;;;;;24.88;8.63;;;;;;;25.34;40.71;99686.72;5035504;28;20043;-77
2022/08/30 05:56:45;;;;;;;14.73;7.22;;;;;;;25.38;40.36;99679.75;5053056;28;20049;-79
2022/08/30 05:59:12;;;;;;;16.73;7.50;;;;;;;25.53;40.07;99686.91;5035031;28;20063;-78
2022/08/30 06:01:44;;;;;;;26.17;6.90;;;;;;;25.63;39.91;99673.66;5035286;28;20048;-78
2022/08/30 06:04:11;;;;;;;17.65;7.65;;;;;;;25.86;39.16;99682.28;5052894;28;20075;-77
2022/08/30 06:06:38;;;;;;;26.65;6.43;;;;;;;26.09;39.10;99689.19;5034819;28;20052;-79
2022/08/30 06:09:06;;;;;;;17.67;5.90;;;;;;;26.13;38.39;99685.78;5051699;28;20381;-78
2022/08/30 06:11:36;;;;;;;24.00;6.17;;;;;;;26.14;37.67;99689.38;5034716;28;20147;-79
2022/08/30 06:14:03;;;;;;;17.65;6.10;;;;;;;26.36;37.92;99679.78;5052550;28;20056;-78
2022/08/30 06:16:30;;;;;;;31.83;7.22;;;;;;;26.55;37.58;99677.22;5034599;28;20048;-79
2022/08/30 06:18:57;;;;;;;22.23;7.53;;;;;;;26.83;37.30;99674.97;5052497;28;20064;-80
2022/08/30 06:21:24;;;;;;;28.02;7.13;;;;;;;26.78;36.63;99683.00;5053052;28;20041;-79
2022/08/30 06:23:51;;;;;;;23.80;6.50;;;;;;;26.75;36.92;99669.75;5051362;28;20055;-78
2022/08/30 06:26:17;;;;;;;19.50;6.28;;;;;;;27.05;36.94;99669.13;5052597;28;20094;-77
2022/08/30 06:28:44;;;;;;;24.15;5.82;;;;;;;27.13;36.21;99663.41;5034880;28;20045;-77
2022/08/30 06:31:13;;;;;;;11.70;5.10;;;;;;;27.28;35.64;99671.31;5051366;28;20036;-78
2022/08/30 06:33:39;;;;;;;19.05;5.20;;;;;;;27.07;35.88;99656.00;5051789;28;20076;-76
2022/08/30 06:36:10;;;;;;;15.23;4.63;;;;;;;27.36;35.90;99663.63;5034528;28;20514;-77
2022/08/30 06:38:38;;;;;;;18.08;5.13;;;;;;;27.76;35.46;99657.78;5034328;28;20094;-76
2022/08/30 06:41:08;;;;;;;19.73;5.28;;;;;;;28.10;35.08;99658.28;5052676;28;20037;-77
2022/08/30 06:43:35;;;;;;;21.45;5.22;;;;;;;28.36;34.83;99650.75;5053235;28;20500;-79
2022/08/30 06:46:07;;;;;;;19.60;5.47;;;;;;;28.28;34.53;99658.25;5052505;28;20056;-79
2022/08/30 06:48:33;;;;;;;19.58;6.05;;;;;;;28.53;34.65;99660.91;5018516;28;20064;-79
2022/08/30 06:50:59;;;;;;;12.98;5.63;;;;;;;28.72;33.43;99649.88;5034848;28;20049;-80
2022/08/30 06:53:28;;;;;;;24.42;5.80;;;;;;;28.48;33.18;99655.28;5034812;28;20041;-80
2022/08/30 06:56:00;;;;;;;25.50;6.32;;;;;;;28.05;33.98;99644.34;5052134;28;20143;-80
2022/08/30 06:58:30;;;;;;;19.85;6.28;;;;;;;28.08;34.46;99649.41;5034486;28;20056;-80
2022/08/30 07:00:56;;;;;;;13.38;5.40;;;;;;;27.95;34.48;99646.81;5051244;28;20139;-79
2022/08/30 07:03:24;;;;;;;15.30;6.63;;;;;;;28.14;34.31;99648.50;5051110;28;20564;-78
2022/08/30 07:05:50;;;;;;;18.48;6.25;;;;;;;28.35;33.97;99638.06;5034633;28;20120;-79
2022/08/30 07:08:16;;;;;;;18.30;5.35;;;;;;;28.72;33.76;99636.94;5051095;28;20488;-78
2022/08/30 07:10:42;;;;;;;14.55;6.38;;;;;;;28.88;32.35;99637.34;5050934;28;20159;-79
2022/08/30 07:13:08;;;;;;;11.60;4.80;;;;;;;28.66;32.16;99637.03;5050805;28;20048;-78
2022/08/30 07:15:35;;;;;;;16.92;4.80;;;;;;;28.54;32.57;99643.31;5050829;28;20164;-78
2022/08/30 07:20:46;;;;;;;14.90;5.10;;;;;;;29.48;32.00;99637.22;5034490;28;20045;-79
2022/08/30 07:23:12;;;;;;;12.23;4.47;;;;;;;29.67;31.35;99616.78;5018013;28;20136;-79
2022/08/30 07:25:40;;;;;;;12.77;4.90;;;;;;;29.43;31.68;99635.19;5051956;28;20041;-79
2022/08/30 07:28:07;;;;;;;14.32;4.65;;;;;;;29.36;30.45;99619.88;5050965;28;20221;-77
2022/08/30 07:30:36;;;;;;;21.70;4.65;;;;;;;29.25;30.95;99629.78;5053407;28;20048;-79
2022/08/30 07:33:03;;;;;;;15.60;4.90;;;;;;;29.46;31.08;99622.88;5038060;28;20044;-76
2022/08/30 07:35:28;;;;;;;75.95;9.70;;;;;;;29.95;30.72;99620.72;5054245;28;20048;-76
2022/08/30 07:37:54;;;;;;;18.25;5.25;;;;;;;30.44;30.66;99621.19;5037741;28;20041;-77
2022/08/30 07:40:21;;;;;;;19.75;5.55;;;;;;;30.73;29.77;99617.34;5055676;28;20492;-77
2022/08/30 07:42:46;;;;;;;13.05;5.22;;;;;;;30.40;29.27;99620.00;5055687;28;20445;-76
2022/08/30 07:45:12;;;;;;;13.23;4.85;;;;;;;29.74;30.46;99614.72;5037700;28;20045;-77
2022/08/30 07:47:38;;;;;;;12.90;4.85;;;;;;;30.01;30.53;99608.69;5037617;28;20044;-76
2022/08/30 07:50:06;;;;;;;9.05;4.70;;;;;;;30.57;29.90;99623.63;5021114;28;20123;-76
2022/08/30 07:52:33;;;;;;;15.65;5.05;;;;;;;31.00;29.43;99611.22;5038092;28;20045;-78
2022/08/30 07:55:00;;;;;;;11.07;4.45;;;;;;;31.35;29.12;99622.03;5037426;28;20049;-76
2022/08/30 07:57:26;;;;;;;22.92;5.65;;;;;;;31.64;28.34;99610.88;5055295;28;20048;-75
2022/08/30 07:59:52;;;;;;;10.65;5.20;;;;;;;31.45;27.23;99618.59;5054072;28;20125;-76
2022/08/30 08:02:19;;;;;;;9.07;4.95;;;;;;;31.13;27.99;99608.09;5021285;28;20087;-76
2022/08/30 08:04:47;;;;;;;10.18;5.18;;;;;;;31.10;28.22;99611.38;5054240;28;20052;-77
2022/08/30 08:07:13;;;;;;;11.73;4.90;;;;;;;30.90;28.55;99614.63;5037390;28;20114;-76
2022/08/30 08:09:38;;;;;;;15.65;4.75;;;;;;;31.49;28.16;99613.41;5055039;28;20103;-75
2022/08/30 08:12:07;;;;;;;13.65;4.70;;;;;;;31.94;26.80;99613.25;5053834;28;20052;-76
2022/08/30 08:14:34;;;;;;;17.63;5.18;;;;;;;31.89;26.89;99615.94;5037431;28;20123;-76
2022/08/30 08:17:00;;;;;;;11.30;4.82;;;;;;;31.89;26.52;99593.81;5054834;28;20098;-76
2022/08/30 08:19:26;;;;;;;10.45;4.65;;;;;;;31.92;26.27;99607.97;5053956;28;20041;-78
2022/08/30 08:21:58;;;;;;;16.60;4.88;;;;;;;31.58;26.41;99611.88;5037552;28;20127;-76
2022/08/30 08:24:26;;;;;;;10.65;4.70;;;;;;;31.46;26.84;99605.63;5054042;28;20483;-77
2022/08/30 08:26:53;;;;;;;12.82;4.55;;;;;;;31.61;26.98;99606.69;5021096;28;20037;-79
2022/08/30 08:29:21;;;;;;;7.85;4.40;;;;;;;31.71;26.46;99605.13;5053709;28;20045;-77
2022/08/30 08:31:47;;;;;;;8.07;4.35;;;;;;;31.19;26.54;99601.59;5054877;28;20044;-75
2022/08/30 08:34:14;;;;;;;10.05;4.80;;;;;;;31.19;26.99;99603.53;5036851;28;20040;-75
2022/08/30 08:36:40;;;;;;;13.20;4.93;;;;;;;31.56;26.67;99603.84;5054427;28;20621;-76
2022/08/30 08:39:07;;;;;;;14.20;4.95;;;;;;;31.89;26.48;99591.88;5036595;28;20049;-76
2022/08/30 08:42:06;;;;;;;16.10;4.77;;;;;;;32.31;25.80;99599.59;5036491;28;20052;-77
2022/08/30 08:44:57;;;;;;;13.10;4.75;;;;;;;32.72;25.35;99599.22;5036972;28;20048;-77
2022/08/30 08:47:35;;;;;;;13.10;4.35;;;;;;;32.83;24.77;99590.75;5036749;28;20045;-77
2022/08/30 08:50:04;;;;;;;7.97;4.30;;;;;;;33.19;24.17;99593.03;5053184;28;20103;-77
2022/08/30 08:55:34;;;;;;;36.75;6.22;;;;;;;33.99;23.68;99578.03;5054150;28;20088;-76
2022/08/30 08:58:01;;;;;;;7.70;4.20;;;;;;;34.43;23.24;99597.06;5036598;28;20048;-77
2022/08/30 09:00:28;;;;;;;13.43;4.50;;;;;;;34.62;22.68;99591.03;5053862;28;20057;-76
2022/08/30 09:03:01;;;;;;;12.90;4.22;;;;;;;34.83;22.36;99589.94;5036696;28;20044;-76
2022/08/30 09:05:38;;;;;;;13.98;4.13;;;;;;;35.12;21.70;99587.47;5036192;28;20175;-76
2022/08/30 09:08:07;;;;;;;21.65;4.97;;;;;;;34.47;22.10;99581.53;5036500;28;20045;-77
2022/08/30 09:10:34;;;;;;;10.10;4.65;;;;;;;34.16;22.31;99585.31;5052668;28;20045;-76
2022/08/30 09:13:00;;;;;;;15.30;4.32;;;;;;;34.39;22.31;99584.84;5035898;28;20071;-76
2022/08/30 09:15:29;;;;;;;14.88;4.50;;;;;;;34.92;22.06;99582.72;5053567;28;20098;-75
2022/08/30 09:18:02;;;;;;;15.52;4.38;;;;;;;35.52;21.61;99580.22;5053795;28;20158;-75
2022/08/30 09:20:40;;;;;;;9.98;4.38;;;;;;;36.06;21.18;99581.47;5052770;28;20120;-75
2022/08/30 09:23:14;;;;;;;22.73;4.95;;;;;;;35.84;20.50;99577.06;5035821;28;20419;-75
2022/08/30 09:25:52;;;;;;;12.18;4.32;;;;;;;34.80;21.33;99568.28;5052412;28;20106;-76
2022/08/30 09:28:25;;;;;;;10.15;4.20;;;;;;;34.31;21.44;99577.03;5035675;28;20060;-75
2022/08/30 09:31:18;;;;;;;11.63;4.28;;;;;;;33.88;22.20;99565.19;5035827;28;20049;-75
2022/08/30 09:34:02;;;;;;;18.63;4.40;;;;;;;34.28;22.31;99566.50;5053463;28;20049;-76
2022/08/30 09:36:52;;;;;;;14.38;4.45;;;;;;;34.01;21.88;99559.19;5053850;28;20078;-76
2022/08/30 09:39:25;;;;;;;9.13;4.10;;;;;;;34.32;22.31;99557.34;5035550;28;20431;-77
2022/08/30 09:41:51;;;;;;;9.50;4.05;;;;;;;34.54;21.84;99562.69;5018725;28;20047;-76
2022/08/30 09:44:19;;;;;;;10.63;4.10;;;;;;;34.51;21.88;99551.31;5035726;28;20076;-75
2022/08/30 09:46:51;;;;;;;24.08;5.00;;;;;;;34.56;21.66;99554.06;5051812;28;20408;-76
2022/08/30 09:49:29;;;;;;;10.98;4.10;;;;;;;34.51;21.97;99554.91;5035217;28;20080;-76
2022/08/30 09:52:22;;;;;;;12.82;4.32;;;;;;;34.13;22.55;99547.84;5018500;28;20076;-75
2022/08/30 09:55:13;;;;;;;16.00;5.30;;;;;;;34.35;22.32;99544.88;5051867;28;20626;-75
2022/08/30 09:57:42;;;;;;;21.30;6.10;;;;;;;34.51;22.44;99543.81;5035492;28;20045;-76
2022/08/30 10:00:17;;;;;;;18.05;5.88;;;;;;;34.70;22.51;99546.88;5018785;28;20492;-77
2022/08/30 10:03:18;;;;;;;16.77;5.53;;;;;;;35.31;22.18;99551.59;5018691;28;20044;-75
2022/08/30 10:06:22;;;;;;;21.08;5.80;;;;;;;35.77;21.76;99548.75;5051639;28;20144;-76
2022/08/30 10:09:06;;;;;;;20.45;5.82;;;;;;;36.21;20.88;99550.78;5015063;28;20049;-76
2022/08/30 10:11:51;;;;;;;24.58;6.35;;;;;;;36.16;20.57;99553.59;5035541;28;20048;-75
2022/08/30 10:14:53;;;;;;;23.58;5.18;;;;;;;36.46;20.64;99549.78;5035113;28;20044;-76
2022/08/30 10:17:37;;;;;;;22.13;5.82;;;;;;;36.71;19.68;99541.28;5034091;28;20045;-76
2022/08/30 10:20:20;;;;;;;13.38;5.35;;;;;;;36.85;20.34;99541.44;5034721;28;20145;-75
2022/08/30 10:22:59;;;;;;;17.10;5.28;;;;;;;37.34;19.82;99546.03;5052763;28;20056;-75
2022/08/30 10:25:37;;;;;;;14.32;5.60;;;;;;;37.65;19.53;99531.75;5018418;28;20040;-75
2022/08/30 10:28:03;;;;;;;;;;;;;;;37.66;19.11;99539.84;5053086;28;20052;-75
2022/08/30 10:30:32;;;;;;;20.92;5.88;;;;;;;37.91;19.24;99523.94;5051438;28;19924;-75
2022/08/30 10:33:05;;;;;;;13.32;5.72;;;;;;;38.17;18.94;99526.38;5034744;28;20032;-76
2022/08/30 10:35:59;;;;;;;19.10;5.93;;;;;;;38.47;19.00;99525.13;5018363;28;20099;-75
2022/08/30 10:38:31;;;;;;;24.95;6.13;;;;;;;38.51;18.84;99526.19;5018331;28;20041;-76
2022/08/30 10:41:20;;;;;;;11.60;5.47;;;;;;;38.49;18.39;99515.31;5034898;28;20048;-77
2022/08/30 10:43:58;;;;;;;22.20;5.65;;;;;;;38.35;18.28;99523.63;5051611;28;20144;-76
2022/08/30 10:46:56;;;;;;;14.10;5.40;;;;;;;37.96;18.72;99523.06;5034680;28;20045;-76
2022/08/30 10:49:26;;;;;;;17.75;5.55;;;;;;;38.11;18.93;99517.28;5018632;28;20045;-77
2022/08/30 10:52:22;;;;;;;20.48;5.47;;;;;;;38.47;18.51;99512.00;5035157;28;20041;-76
2022/08/30 10:54:59;;;;;;;36.88;6.40;;;;;;;38.56;18.47;99515.78;5052505;28;20045;-77
2022/08/30 10:57:25;;;;;;;14.63;5.00;;;;;;;38.81;18.08;99508.13;5050940;28;20130;-77
2022/08/30 11:00:09;;;;;;;12.13;5.03;;;;;;;39.26;17.94;99498.09;5052411;28;20091;-76
2022/08/30 11:03:00;;;;;;;10.15;4.78;;;;;;;39.56;17.52;99507.03;5052103;28;20488;-77
2022/08/30 11:05:44;;;;;;;18.40;5.03;;;;;;;39.49;17.60;99512.19;5055203;28;20048;-76
2022/08/30 11:08:19;;;;;;;11.98;5.38;;;;;;;39.36;17.09;99507.44;5055640;28;20070;-77
2022/08/30 11:11:15;;;;;;;15.80;5.30;;;;;;;39.69;17.33;99505.41;5055372;28;20045;-76
2022/08/30 11:13:43;;;;;;;12.00;5.00;;;;;;;39.86;17.02;99499.97;5054916;28;20083;-76
2022/08/30 11:16:14;;;;;;;17.52;4.57;;;;;;;39.95;16.77;99500.09;5021874;28;20071;-76
2022/08/30 11:18:46;;;;;;;12.88;4.40;;;;;;;40.23;16.27;99503.66;5055201;28;20427;-76
2022/08/30 11:21:35;;;;;;;8.48;4.05;;;;;;;40.06;16.13;99493.13;5056110;28;20439;-75
2022/08/30 11:24:11;;;;;;;8.85;4.47;;;;;;;40.14;16.12;99489.59;5037926;28;20476;-77
2022/08/30 11:26:49;;;;;;;6.35;3.95;;;;;;;40.02;16.18;99486.47;5038352;28;20041;-77
2022/08/30 11:29:36;;;;;;;8.68;3.70;;;;;;;40.06;16.15;99487.53;5021661;28;20049;-76
2022/08/30 11:32:11;;;;;;;14.40;4.80;;;;;;;40.14;16.07;99489.59;5054757;28;20097;-75
2022/08/30 11:34:46;;;;;;;19.45;4.50;;;;;;;40.46;16.02;99487.72;5054297;28;20045;-76
2022/08/30 11:37:32;;;;;;;10.93;4.50;;;;;;;40.82;15.35;99482.06;5054069;28;20523;-76
2022/08/30 11:40:00;;;;;;;9.23;4.13;;;;;;;40.71;15.79;99478.69;5055785;28;20052;-76
2022/08/30 11:42:41;;;;;;;15.65;3.90;;;;;;;40.84;15.24;99468.53;5054235;28;20388;-76
2022/08/30 11:45:34;;;;;;;12.52;4.35;;;;;;;41.11;15.84;99473.16;5055530;28;20523;-75
2022/08/30 11:48:08;;;;;;;10.75;5.05;;;;;;;41.24;15.37;99466.66;5046343;28;20060;-75
2022/08/30 11:51:03;;;;;;;12.18;5.28;;;;;;;40.74;15.62;99463.22;5055748;28;20084;-75